createdAt,value
2022-10-18T00:00:20.101Z,14.30
2022-10-18T00:02:47.035Z,14.20
2022-10-18T08:45:43.307Z,12.80
2022-10-18T08:48:58.442Z,12.90
2022-10-18T08:51:37.823Z,13.00
2022-10-18T08:54:10.467Z,13.00
2022-10-18T08:56:39.639Z,13.00
2022-10-18T08:59:13.366Z,13.10
2022-10-18T09:02:01.012Z,13.10
2022-10-18T09:04:38.089Z,13.10
2022-10-18T09:07:39.042Z,13.10
2022-10-18T09:10:24.349Z,13.10
2022-10-18T09:13:19.349Z,13.20
2022-10-18T09:15:51.551Z,13.20
2022-10-18T09:18:27.311Z,13.20
2022-10-18T09:20:58.343Z,13.30
2022-10-18T09:23:59.007Z,13.40
2022-10-18T09:26:26.189Z,13.50
2022-10-18T09:29:13.573Z,13.40
2022-10-18T09:31:52.048Z,13.30
2022-10-18T09:34:41.934Z,13.40
2022-10-18T09:37:14.956Z,13.30
2022-10-18T09:39:41.873Z,13.30
2022-10-18T09:42:19.577Z,13.30
2022-10-18T09:44:52.983Z,13.30
2022-10-18T09:50:16.701Z,13.30
2022-10-18T09:52:52.035Z,13.20
2022-10-18T09:55:24.018Z,13.30
2022-10-18T09:57:56.445Z,13.30
2022-10-18T10:00:29.596Z,13.30
2022-10-18T10:02:56.668Z,13.30
2022-10-18T10:05:23.461Z,13.40
2022-10-18T10:07:58.614Z,13.40
2022-10-18T10:10:30.613Z,13.40
2022-10-18T10:13:22.839Z,13.50
2022-10-18T10:16:01.167Z,13.60
2022-10-18T10:18:39.380Z,13.60
2022-10-18T10:21:12.913Z,13.70
2022-10-18T10:23:46.726Z,13.70
2022-10-18T10:26:25.586Z,13.80
2022-10-18T10:28:52.528Z,13.80
2022-10-18T10:31:25.225Z,13.90
2022-10-18T10:34:20.196Z,13.90
2022-10-18T10:36:49.780Z,14.00
2022-10-18T10:39:19.614Z,14.00
2022-10-18T10:41:54.691Z,14.10
2022-10-18T10:44:24.250Z,14.10
2022-10-18T10:46:52.039Z,14.10
2022-10-18T10:49:40.584Z,14.20
2022-10-18T10:52:26.781Z,14.30
2022-10-18T10:55:05.744Z,14.30
2022-10-18T10:57:39.043Z,14.40
2022-10-18T11:00:08.188Z,14.40
2022-10-18T11:02:36.576Z,14.40
2022-10-18T11:05:29.632Z,14.50
2022-10-18T11:08:02.327Z,14.60
2022-10-18T11:10:34.718Z,14.60
2022-10-18T11:13:23.057Z,14.70
2022-10-18T11:15:57.227Z,14.80
2022-10-18T11:18:32.563Z,14.80
2022-10-18T11:21:32.714Z,14.90
2022-10-18T11:24:02.577Z,14.80
2022-10-18T11:26:53.747Z,14.80
2022-10-18T11:29:33.153Z,14.80
2022-10-18T11:32:34.138Z,14.80
2022-10-18T11:35:38.811Z,14.90
2022-10-18T11:38:27.391Z,14.90
2022-10-18T11:41:07.665Z,15.10
2022-10-18T11:44:01.030Z,15.30
2022-10-18T11:47:10.798Z,15.40
2022-10-18T11:50:12.820Z,15.60
2022-10-18T11:52:48.724Z,15.70
2022-10-18T11:55:40.935Z,15.70
2022-10-18T11:58:51.005Z,15.70
2022-10-18T12:02:00.091Z,15.60
2022-10-18T12:05:05.366Z,15.60
2022-10-18T12:07:53.339Z,15.70
2022-10-18T12:10:31.593Z,15.80
2022-10-18T12:13:18.136Z,15.90
2022-10-18T12:15:45.555Z,16.00
2022-10-18T12:18:20.354Z,16.10
2022-10-18T12:20:57.196Z,16.20
2022-10-18T12:23:29.789Z,16.40
2022-10-18T12:26:06.561Z,16.50
2022-10-18T12:28:37.460Z,16.60
2022-10-18T12:31:22.745Z,16.80
2022-10-18T12:33:55.663Z,16.90
2022-10-18T12:36:22.345Z,17.10
2022-10-18T12:39:01.215Z,17.30
2022-10-18T12:41:31.331Z,17.60
2022-10-18T12:44:18.345Z,17.80
2022-10-18T12:46:59.896Z,18.10
2022-10-18T12:49:39.117Z,18.50
2022-10-18T12:52:23.184Z,19.00
2022-10-18T12:55:19.382Z,19.70
2022-10-18T12:57:52.448Z,20.50
2022-10-18T13:00:31.621Z,20.40
2022-10-18T13:03:11.529Z,19.90
2022-10-18T13:05:55.869Z,19.10
2022-10-18T13:08:30.222Z,19.00
2022-10-18T13:11:09.426Z,20.10
2022-10-18T13:13:51.102Z,20.50
2022-10-18T13:16:33.984Z,20.80
2022-10-18T13:19:22.490Z,20.90
2022-10-18T13:22:14.367Z,20.50
2022-10-18T13:25:04.258Z,20.00
2022-10-18T13:27:56.757Z,19.40
2022-10-18T13:30:33.063Z,18.90
2022-10-18T13:33:28.438Z,19.60
2022-10-18T13:36:01.345Z,20.80
2022-10-18T13:38:42.601Z,22.10
2022-10-18T13:41:16.160Z,23.00
2022-10-18T13:44:04.992Z,23.90
2022-10-18T13:46:34.965Z,24.60
2022-10-18T13:49:14.819Z,25.00
2022-10-18T13:51:47.826Z,25.40
2022-10-18T13:54:14.597Z,25.40
2022-10-18T13:57:01.957Z,25.00
2022-10-18T13:59:42.810Z,24.30
2022-10-18T14:02:59.914Z,22.80
2022-10-18T14:05:52.202Z,21.40
2022-10-18T14:08:49.533Z,20.60
2022-10-18T14:11:37.104Z,21.30
2022-10-18T14:14:15.351Z,22.50
2022-10-18T14:17:00.697Z,23.00
2022-10-18T14:19:50.556Z,22.80
2022-10-18T14:22:22.620Z,23.20
2022-10-18T14:24:53.975Z,23.20
2022-10-18T14:27:23.670Z,22.50
2022-10-18T14:30:06.999Z,21.70
2022-10-18T14:32:34.053Z,20.80
2022-10-18T14:35:30.697Z,20.20
2022-10-18T14:37:50.225Z,19.70
2022-10-18T14:40:31.121Z,19.10
2022-10-18T14:43:20.007Z,18.80
2022-10-18T14:45:46.964Z,18.40
2022-10-18T14:48:15.579Z,18.20
2022-10-18T14:50:47.670Z,17.90
2022-10-18T14:53:18.808Z,17.70
2022-10-18T14:55:57.242Z,17.50
2022-10-18T14:58:24.117Z,17.20
2022-10-18T15:00:51.134Z,17.10
2022-10-18T15:03:19.282Z,16.90
2022-10-18T15:05:56.727Z,16.80
2022-10-18T15:08:24.949Z,16.60
2022-10-18T15:10:52.360Z,16.50
2022-10-18T15:13:19.605Z,16.30
2022-10-18T15:15:46.897Z,16.30
2022-10-18T15:18:40.410Z,16.20
2022-10-18T15:21:09.339Z,16.10
2022-10-18T15:23:36.215Z,16.00
2022-10-18T15:26:06.809Z,16.00
2022-10-18T15:28:40.657Z,15.90
2022-10-18T15:31:22.786Z,15.90
2022-10-18T15:33:50.020Z,15.80
2022-10-18T15:36:32.125Z,15.80
2022-10-18T15:39:27.404Z,15.70
2022-10-18T15:41:59.418Z,15.70
2022-10-18T15:44:48.896Z,15.70
2022-10-18T15:47:22.932Z,15.70
2022-10-18T15:49:51.584Z,15.60
2022-10-18T15:52:39.835Z,15.60
2022-10-18T15:55:31.535Z,15.60
2022-10-18T15:58:25.551Z,15.60
2022-10-18T16:00:55.974Z,15.50
2022-10-18T16:03:24.069Z,15.40
2022-10-18T16:05:59.871Z,15.40
2022-10-18T16:08:30.705Z,15.30
2022-10-18T16:11:01.231Z,15.20
2022-10-18T16:13:28.182Z,15.10
2022-10-18T16:15:56.054Z,15.00
2022-10-18T16:18:28.518Z,14.90
2022-10-18T16:20:56.535Z,14.90
2022-10-18T16:23:26.150Z,14.80
2022-10-18T16:25:53.272Z,14.80
2022-10-18T16:28:23.087Z,14.70
2022-10-18T16:31:00.034Z,14.70
2022-10-18T16:33:29.610Z,14.60
2022-10-18T16:35:57.105Z,14.60
2022-10-18T16:38:35.489Z,14.50
2022-10-18T16:41:07.791Z,14.60
2022-10-18T16:43:37.873Z,14.50
2022-10-18T16:46:07.820Z,14.50
2022-10-18T16:48:34.947Z,14.50
2022-10-18T16:51:02.394Z,14.40
2022-10-18T16:53:29.403Z,14.40
2022-10-18T16:56:01.468Z,14.30
2022-10-18T16:58:30.321Z,14.30
2022-10-18T17:00:58.379Z,14.40
2022-10-18T17:03:26.423Z,14.30
2022-10-18T17:05:53.592Z,14.30
2022-10-18T17:08:23.225Z,14.30
2022-10-18T17:10:53.041Z,14.30
2022-10-18T17:13:21.577Z,14.20
2022-10-18T17:15:49.176Z,14.20
2022-10-18T17:18:22.796Z,14.20
2022-10-18T17:20:50.434Z,14.20
2022-10-18T17:23:17.387Z,14.20
2022-10-18T17:26:04.666Z,14.10
2022-10-18T17:28:38.403Z,14.10
2022-10-18T17:31:07.412Z,14.10
2022-10-18T17:33:34.324Z,14.10
2022-10-18T17:36:01.295Z,14.00
2022-10-18T17:38:28.211Z,14.00
2022-10-18T17:40:55.399Z,14.00
2022-10-18T17:43:22.367Z,14.00
2022-10-18T17:45:53.537Z,13.90
2022-10-18T17:48:20.591Z,13.90
2022-10-18T17:50:48.244Z,13.90
2022-10-18T17:53:16.119Z,13.90
2022-10-18T17:55:42.973Z,13.80
2022-10-18T17:58:10.272Z,13.80
2022-10-18T18:00:37.243Z,13.70
2022-10-18T18:03:04.327Z,13.70
2022-10-18T18:05:33.049Z,13.70
2022-10-18T18:08:03.812Z,13.70
2022-10-18T18:10:35.121Z,13.70
2022-10-18T18:13:02.617Z,13.70
2022-10-18T18:15:29.726Z,13.60
2022-10-18T18:17:57.706Z,13.60
2022-10-18T18:20:26.006Z,13.60
2022-10-18T18:22:53.216Z,13.50
2022-10-18T18:25:20.218Z,13.50
2022-10-18T18:27:47.012Z,13.40
2022-10-18T18:30:15.379Z,13.30
2022-10-18T18:32:42.272Z,13.30
2022-10-18T18:35:09.546Z,13.20
2022-10-18T18:37:36.492Z,13.20
2022-10-18T18:40:04.203Z,13.10
2022-10-18T18:42:32.002Z,13.10
2022-10-18T18:44:59.436Z,13.00
2022-10-18T18:47:27.473Z,13.10
2022-10-18T18:49:56.912Z,13.10
2022-10-18T18:52:23.698Z,13.10
2022-10-18T18:54:51.028Z,13.20
2022-10-18T18:57:18.306Z,13.10
2022-10-18T18:59:45.402Z,13.10
2022-10-18T19:02:12.206Z,13.10
2022-10-18T19:04:41.295Z,13.10
2022-10-18T19:07:08.283Z,13.00
2022-10-18T19:09:38.387Z,13.00
2022-10-18T19:12:05.516Z,13.00
2022-10-18T19:14:32.536Z,13.00
2022-10-18T19:16:59.938Z,13.00
2022-10-18T19:19:28.955Z,13.00
2022-10-18T19:21:57.815Z,12.90
2022-10-18T19:24:26.831Z,12.90
2022-10-18T19:26:59.451Z,13.00
2022-10-18T19:29:35.527Z,12.90
2022-10-18T19:32:05.820Z,12.90
2022-10-18T19:34:34.453Z,12.90
2022-10-18T19:37:02.183Z,12.80
2022-10-18T19:39:31.462Z,12.80
2022-10-18T19:42:00.438Z,12.80
2022-10-18T19:44:30.979Z,12.80
2022-10-18T19:46:58.341Z,12.70
2022-10-18T19:49:25.560Z,12.70
2022-10-18T19:51:52.827Z,12.60
2022-10-18T19:54:20.150Z,12.60
2022-10-18T19:56:47.449Z,12.50
2022-10-18T19:59:16.168Z,12.40
2022-10-18T20:01:43.857Z,12.40
2022-10-18T20:04:11.815Z,12.30
2022-10-18T20:06:39.506Z,12.30
2022-10-18T20:09:08.291Z,12.40
2022-10-18T20:11:36.153Z,12.30
2022-10-18T20:14:06.358Z,12.30
2022-10-18T20:16:36.163Z,12.30
2022-10-18T20:19:05.125Z,12.30
2022-10-18T20:21:35.935Z,12.30
2022-10-18T20:24:04.791Z,12.30
2022-10-18T20:26:32.378Z,12.30
2022-10-18T20:29:00.077Z,12.30
2022-10-18T20:31:32.453Z,12.30
2022-10-18T20:34:02.341Z,12.30
2022-10-18T20:36:31.428Z,12.20
2022-10-18T20:39:00.043Z,12.20
2022-10-18T20:41:36.639Z,12.20
2022-10-18T20:44:07.190Z,12.20
2022-10-18T20:46:36.904Z,12.20
2022-10-18T20:49:05.874Z,12.20
2022-10-18T20:51:35.628Z,12.20
2022-10-18T20:56:34.298Z,12.10
2022-10-18T20:59:02.210Z,12.10
2022-10-18T21:01:31.676Z,12.10
2022-10-18T21:04:01.813Z,12.10
2022-10-18T21:06:37.631Z,12.10
2022-10-18T21:09:10.926Z,12.10
2022-10-18T21:11:40.844Z,12.00
2022-10-18T21:14:15.101Z,12.00
2022-10-18T21:16:43.315Z,12.00
2022-10-18T21:19:22.979Z,12.00
2022-10-18T21:21:52.596Z,12.00
2022-10-18T21:24:20.726Z,12.00
2022-10-18T21:26:48.011Z,12.00
2022-10-18T21:29:20.730Z,12.10
2022-10-18T21:31:48.875Z,12.00
2022-10-18T21:34:17.570Z,12.00
2022-10-18T21:36:45.895Z,12.10
2022-10-18T21:39:15.515Z,12.10
2022-10-18T21:41:43.591Z,12.00
2022-10-18T21:44:11.380Z,12.10
2022-10-18T21:46:39.514Z,12.00
2022-10-18T21:49:07.765Z,12.10
2022-10-18T21:51:35.180Z,12.00
2022-10-18T21:54:02.088Z,12.10
2022-10-18T21:56:32.112Z,12.00
2022-10-18T21:58:59.304Z,12.10
2022-10-18T22:01:34.942Z,12.10
2022-10-18T22:04:03.494Z,12.10
2022-10-18T22:09:08.567Z,12.10
2022-10-18T22:11:42.373Z,12.10
2022-10-18T22:14:09.786Z,12.10
2022-10-18T22:16:36.583Z,12.10
2022-10-18T22:19:04.983Z,12.10
2022-10-18T22:21:31.976Z,12.10
2022-10-18T22:23:59.792Z,12.10
2022-10-18T22:26:29.880Z,12.10
2022-10-18T22:28:59.228Z,12.00
2022-10-18T22:31:29.125Z,12.00
2022-10-18T22:33:57.998Z,12.00
2022-10-18T22:36:25.875Z,12.00
2022-10-18T22:38:53.077Z,12.00
2022-10-18T22:41:19.919Z,12.00
2022-10-18T22:43:47.745Z,12.00
2022-10-18T22:46:16.061Z,12.00
2022-10-18T22:48:43.433Z,12.10
2022-10-18T22:51:10.588Z,12.00
2022-10-18T22:53:38.566Z,12.00
2022-10-18T22:56:07.569Z,12.00
2022-10-18T22:58:34.519Z,12.00
2022-10-18T23:01:05.670Z,12.00
2022-10-18T23:03:33.166Z,12.00
2022-10-18T23:06:00.258Z,12.00
2022-10-18T23:08:27.768Z,12.00
2022-10-18T23:10:57.552Z,12.00
2022-10-18T23:13:25.962Z,12.00
2022-10-18T23:15:53.158Z,11.90
2022-10-18T23:18:20.089Z,11.90
2022-10-18T23:20:46.998Z,11.80
2022-10-18T23:23:14.084Z,11.80
2022-10-18T23:25:40.859Z,11.70
2022-10-18T23:28:07.647Z,11.60
2022-10-18T23:30:37.210Z,11.50
2022-10-18T23:33:04.120Z,11.50
2022-10-18T23:35:30.861Z,11.40
2022-10-18T23:37:57.912Z,11.30
2022-10-18T23:40:24.752Z,11.30
2022-10-18T23:42:51.606Z,11.20
2022-10-18T23:45:18.449Z,11.20
2022-10-18T23:47:45.237Z,11.20
2022-10-18T23:50:12.042Z,11.00
2022-10-18T23:52:38.791Z,11.00
2022-10-18T23:55:06.198Z,11.00
2022-10-18T23:57:33.405Z,10.90
